Time;durP1;ratioP1;P1;durP2;ratioP2;P2;SDS_P1;SDS_P2;PMS_P1;PMS_P2;Temp;Humidity;BMP_temperature;BMP_pressure;BME280_temperature;BME280_humidity;BME280_pressure;Samples;Min_cycle;Max_cycle;Signal;HPM_P1;HPM_P2
2022/10/26 00:00:41;;;;;;;5.20;4.90;;;;;;;-142.65;96.94;50174.75;5114762;28;20216;-68
2022/10/26 00:03:07;;;;;;;5.73;5.63;;;;;;;-142.65;96.91;50170.78;5114804;28;20182;-68
2022/10/26 00:05:34;;;;;;;5.93;5.63;;;;;;;-142.65;97.34;50178.75;5115315;28;20177;-68
2022/10/26 00:08:01;;;;;;;5.97;5.53;;;;;;;-142.65;97.57;50178.75;5114996;28;20270;-68
2022/10/26 00:10:27;;;;;;;6.40;5.90;;;;;;;-142.65;97.82;50170.78;5114573;28;20190;-68
2022/10/26 00:12:57;;;;;;;5.20;5.07;;;;;;;-142.65;97.96;50168.78;5114569;28;20291;-68
2022/10/26 00:15:23;;;;;;;6.33;5.93;;;;;;;-142.65;98.05;50168.78;5114508;28;20189;-68
2022/10/26 00:17:50;;;;;;;5.03;4.73;;;;;;;-142.65;97.88;50170.78;5114446;28;20559;-68
2022/10/26 00:20:17;;;;;;;5.50;5.40;;;;;;;;;;5114995;28;20186;-68
2022/10/26 00:22:43;;;;;;;5.20;4.93;;;;;;;-142.65;98.14;50170.78;5114422;28;20551;-68
2022/10/26 00:25:09;;;;;;;5.57;5.20;;;;;;;-142.65;98.19;50162.81;5114316;28;20190;-68
2022/10/26 00:27:36;;;;;;;9.63;5.13;;;;;;;-142.65;98.14;50178.75;5114646;28;20519;-68
2022/10/26 00:30:03;;;;;;;5.83;4.97;;;;;;;;;;5096082;28;20188;-68
2022/10/26 00:32:30;;;;;;;5.10;5.00;;;;;;;-142.65;98.21;50176.75;5114440;28;20216;-68
2022/10/26 00:34:56;;;;;;;5.50;4.87;;;;;;;;;;5114217;28;20531;-68
2022/10/26 00:37:42;;;;;;;5.37;5.10;;;;;;;-142.65;98.06;50174.75;5114132;28;20193;-68
2022/10/26 00:40:09;;;;;;;5.23;4.63;;;;;;;-142.65;98.01;50170.78;5114109;28;20201;-68
2022/10/26 00:42:35;;;;;;;4.67;4.53;;;;;;;-142.65;98.09;50168.78;5113677;28;20573;-68
2022/10/26 00:45:26;;;;;;;5.90;4.70;;;;;;;-142.65;98.06;50178.75;5114299;28;20181;-68
2022/10/26 00:47:55;;;;;;;5.13;4.87;;;;;;;-142.65;98.09;50168.78;5114579;28;20169;-68
2022/10/26 00:50:23;;;;;;;5.33;5.13;;;;;;;;;;5113921;28;20185;-68
2022/10/26 00:52:52;;;;;;;5.60;5.17;;;;;;;-142.65;98.07;50168.78;5114222;28;20681;-68
2022/10/26 00:55:23;;;;;;;5.17;5.07;;;;;;;-142.65;98.04;50170.78;5113906;28;20200;-68
2022/10/26 00:57:51;;;;;;;5.53;5.13;;;;;;;-142.65;98.04;50170.78;5114403;28;20204;-68
2022/10/26 01:00:18;;;;;;;5.13;5.03;;;;;;;-142.65;97.94;50168.78;5114412;28;20197;-68
2022/10/26 01:02:47;;;;;;;7.57;5.10;;;;;;;-142.65;97.90;50174.75;5114395;28;20189;-68
2022/10/26 01:05:15;;;;;;;5.70;5.30;;;;;;;;;;5114048;28;20276;-68
2022/10/26 01:07:43;;;;;;;6.00;5.53;;;;;;;-142.65;97.90;50162.81;5114044;28;20543;-68
2022/10/26 01:10:12;;;;;;;5.50;5.20;;;;;;;-142.65;97.82;50168.78;5113780;28;20188;-68
2022/10/26 01:12:39;;;;;;;5.20;5.10;;;;;;;;;;5113658;28;20201;-68
2022/10/26 01:15:06;;;;;;;7.67;4.77;;;;;;;-142.65;97.61;50172.78;5113611;28;20212;-68
2022/10/26 01:17:46;;;;;;;6.57;5.30;;;;;;;-142.65;97.45;50164.81;5114093;28;20209;-68
2022/10/26 01:20:31;;;;;;;5.53;4.73;;;;;;;;;;5114239;28;20263;-68
2022/10/26 01:23:12;;;;;;;5.67;5.37;;;;;;;-142.65;97.33;50174.75;5113635;28;20342;-68
2022/10/26 01:26:03;;;;;;;6.57;5.03;;;;;;;-142.65;97.31;50170.78;5113921;28;20188;-68
2022/10/26 01:29:07;;;;;;;5.53;5.33;;;;;;;;;;5113871;28;20169;-68
2022/10/26 01:31:48;;;;;;;4.47;4.27;;;;;;;-142.65;97.05;50168.78;5011105;28;20255;-68
2022/10/26 01:34:19;;;;;;;5.20;4.80;;;;;;;;;;5011551;28;20196;-68
2022/10/26 01:36:59;;;;;;;8.50;4.63;;;;;;;-142.65;96.96;50164.81;5072737;28;20201;-68
2022/10/26 01:39:34;;;;;;;4.57;4.37;;;;;;;;;;5113695;28;20201;-68
2022/10/26 01:42:03;;;;;;;5.67;5.37;;;;;;;-142.65;96.94;50178.75;5113573;28;20215;-68
2022/10/26 01:44:38;;;;;;;4.90;4.60;;;;;;;-142.65;96.93;50170.78;5113414;28;20624;-68
2022/10/26 01:47:06;;;;;;;5.23;4.77;;;;;;;-142.65;96.69;50174.75;5113719;28;20188;-68
2022/10/26 01:49:37;;;;;;;4.87;4.60;;;;;;;-142.65;96.80;50168.78;5113637;28;20192;-68
2022/10/26 01:52:03;;;;;;;5.47;5.17;;;;;;;;;;5113587;28;20208;-68
2022/10/26 01:54:30;;;;;;;5.03;4.83;;;;;;;-142.65;96.72;50168.78;5114426;28;20185;-68
2022/10/26 01:57:01;;;;;;;4.67;4.37;;;;;;;-142.65;96.78;50168.78;5117806;28;20189;-68
2022/10/26 01:59:55;;;;;;;4.60;4.30;;;;;;;-142.65;96.65;50180.75;5098898;28;20579;-68
2022/10/26 02:02:43;;;;;;;4.93;4.53;;;;;;;-142.65;96.56;50174.75;5117178;28;20207;-68
2022/10/26 02:05:38;;;;;;;5.03;4.70;;;;;;;-142.65;96.63;50180.75;5117124;28;20173;-68
2022/10/26 02:08:34;;;;;;;4.50;4.10;;;;;;;-142.65;96.52;50170.78;5078232;28;20205;-68
2022/10/26 02:11:26;;;;;;;4.90;4.67;;;;;;;-142.65;96.40;50170.78;5117149;28;20212;-68
2022/10/26 02:13:59;;;;;;;5.33;4.47;;;;;;;-142.65;96.61;50162.81;5117031;28;20671;-68
2022/10/26 02:16:40;;;;;;;4.70;4.33;;;;;;;;;;5117178;28;20181;-68
2022/10/26 02:19:11;;;;;;;4.03;3.70;;;;;;;;;;5116803;28;20196;-68
2022/10/26 02:21:46;;;;;;;3.93;3.87;;;;;;;-142.65;96.27;50176.75;5116901;28;20205;-68
2022/10/26 02:24:14;;;;;;;4.33;4.23;;;;;;;;;;5117057;28;20512;-68
2022/10/26 02:26:44;;;;;;;4.77;4.47;;;;;;;-142.65;96.15;50174.75;5116682;28;20204;-68
2022/10/26 02:29:17;;;;;;;4.03;3.83;;;;;;;-142.65;96.24;50176.75;5116675;28;20178;-68
2022/10/26 02:31:46;;;;;;;4.53;4.17;;;;;;;-142.65;96.17;50178.75;5116845;28;20573;-68
2022/10/26 02:34:16;;;;;;;4.13;4.03;;;;;;;-142.65;96.18;50178.75;5116585;28;20189;-68
2022/10/26 02:36:46;;;;;;;4.83;4.50;;;;;;;-142.65;96.11;50174.75;5116507;28;20184;-68
2022/10/26 02:39:13;;;;;;;16.83;3.97;;;;;;;;;;5116343;28;20205;-68
2022/10/26 02:41:42;;;;;;;4.17;4.07;;;;;;;-142.65;96.11;50164.81;5117197;28;20686;-69
2022/10/26 02:44:23;;;;;;;3.90;3.60;;;;;;;-142.65;96.19;50164.81;5116671;28;20655;-68
2022/10/26 02:46:50;;;;;;;3.93;3.83;;;;;;;;;;5116886;28;20177;-68
2022/10/26 02:49:17;;;;;;;3.70;3.33;;;;;;;-142.65;96.08;50164.81;5116506;28;20278;-68
2022/10/26 02:51:49;;;;;;;4.50;4.20;;;;;;;-142.65;95.99;50164.81;5116174;28;20230;-68
2022/10/26 02:54:25;;;;;;;4.70;4.40;;;;;;;-142.65;96.14;50174.75;5116237;28;20174;-68
2022/10/26 02:57:30;;;;;;;4.20;3.97;;;;;;;-142.65;96.17;50178.75;5116118;28;20177;-68
2022/10/26 02:59:57;;;;;;;4.40;4.13;;;;;;;-142.65;96.05;50170.78;5116087;28;20620;-68
2022/10/26 03:02:25;;;;;;;4.67;4.27;;;;;;;-142.65;95.88;50170.78;5116238;28;20546;-68
2022/10/26 03:04:52;;;;;;;3.77;3.63;;;;;;;-142.65;96.01;50168.78;5115711;28;20181;-68
2022/10/26 03:07:19;;;;;;;4.20;3.77;;;;;;;;;;5115926;28;20196;-68
2022/10/26 03:09:45;;;;;;;5.00;4.80;;;;;;;-142.65;95.97;50172.78;5116193;28;20178;-68
2022/10/26 03:12:12;;;;;;;4.47;4.20;;;;;;;;;;5115694;28;20209;-69
2022/10/26 03:14:40;;;;;;;4.83;4.63;;;;;;;-142.65;95.99;50168.78;5115614;28;20208;-69
2022/10/26 03:17:07;;;;;;;4.47;4.10;;;;;;;-142.65;96.00;50170.78;5116016;28;20185;-68
2022/10/26 03:19:33;;;;;;;3.93;3.63;;;;;;;-142.65;96.01;50170.78;5116452;28;20562;-68
2022/10/26 03:21:59;;;;;;;4.87;3.70;;;;;;;-142.65;96.00;50170.78;5115585;28;20201;-68
2022/10/26 03:24:26;;;;;;;4.33;4.13;;;;;;;-142.65;95.94;50182.72;5115638;28;20550;-68
2022/10/26 03:26:52;;;;;;;5.37;4.97;;;;;;;;;;5115801;28;20189;-68
2022/10/26 03:29:22;;;;;;;4.10;4.00;;;;;;;-142.65;96.04;50174.75;5115516;28;20557;-68
2022/10/26 03:31:52;;;;;;;3.53;3.43;;;;;;;-142.65;95.87;50168.78;5115381;28;20562;-68
2022/10/26 03:34:19;;;;;;;4.30;4.00;;;;;;;;;;5115943;28;20185;-68
2022/10/26 03:36:46;;;;;;;4.43;4.23;;;;;;;-142.65;96.03;50162.81;5115555;28;20200;-68
2022/10/26 03:39:13;;;;;;;5.40;4.00;;;;;;;;;;5115253;28;20290;-68
2022/10/26 03:41:39;;;;;;;4.20;4.10;;;;;;;;;;5115171;28;20212;-68
2022/10/26 03:44:06;;;;;;;4.20;4.00;;;;;;;-142.65;95.95;50170.78;5115773;28;20268;-68
2022/10/26 03:46:32;;;;;;;3.70;3.70;;;;;;;-142.65;95.89;50168.78;5115112;28;20193;-68
2022/10/26 03:48:58;;;;;;;5.50;3.83;;;;;;;-142.65;95.79;50164.81;5115067;28;20656;-68
2022/10/26 03:51:24;;;;;;;3.80;3.50;;;;;;;-142.65;95.85;50174.75;5114885;28;20309;-68
2022/10/26 03:53:51;;;;;;;4.10;4.00;;;;;;;-142.65;95.79;50164.81;5115022;28;20192;-68
2022/10/26 03:56:17;;;;;;;4.67;4.57;;;;;;;-142.65;95.57;50170.78;5115220;28;20177;-68
2022/10/26 03:58:43;;;;;;;4.63;4.13;;;;;;;-142.65;95.59;50180.75;5115052;28;20565;-68
2022/10/26 04:01:10;;;;;;;5.47;3.87;;;;;;;-142.65;95.71;50168.78;5115023;28;20570;-68
2022/10/26 04:03:36;;;;;;;4.13;3.93;;;;;;;-142.65;95.72;50168.78;5115914;28;20514;-68
2022/10/26 04:06:03;;;;;;;4.93;4.43;;;;;;;-142.65;95.73;50164.81;5115287;28;20188;-68
2022/10/26 04:08:30;;;;;;;4.37;4.20;;;;;;;-142.65;95.73;50170.78;5114702;28;20186;-68
2022/10/26 04:10:56;;;;;;;3.93;3.83;;;;;;;;;;5114557;28;20201;-68
2022/10/26 04:13:27;;;;;;;5.20;4.27;;;;;;;-142.65;95.54;50170.78;5114681;28;20197;-68
2022/10/26 04:15:54;;;;;;;4.33;3.73;;;;;;;-142.65;95.57;50170.78;5114865;28;20185;-68
2022/10/26 04:18:20;;;;;;;4.33;4.17;;;;;;;-142.65;95.41;50172.78;5113814;28;20208;-68
2022/10/26 04:20:46;;;;;;;5.73;3.73;;;;;;;-142.65;95.61;50162.81;5114370;28;20197;-68
2022/10/26 04:23:14;;;;;;;3.30;3.30;;;;;;;;;;5114607;28;20189;-68
2022/10/26 04:25:42;;;;;;;4.90;4.20;;;;;;;-142.65;95.49;50164.81;5114821;28;20174;-69
2022/10/26 04:28:10;;;;;;;7.40;4.60;;;;;;;-142.65;95.51;50170.78;5114536;28;20190;-69
2022/10/26 04:30:36;;;;;;;3.90;3.77;;;;;;;;;;5114510;28;20189;-69
2022/10/26 04:33:03;;;;;;;4.67;4.37;;;;;;;;;;5114217;28;20193;-69
2022/10/26 04:35:30;;;;;;;4.50;4.27;;;;;;;-142.65;95.52;50168.78;5095948;28;20666;-69
2022/10/26 04:38:03;;;;;;;3.87;3.77;;;;;;;-142.65;95.56;50172.78;5114131;28;20185;-69
2022/10/26 04:40:30;;;;;;;4.70;4.47;;;;;;;;;;5114359;28;20181;-69
2022/10/26 04:42:56;;;;;;;4.50;4.40;;;;;;;-142.65;95.55;50174.75;5114343;28;20185;-69
2022/10/26 04:45:23;;;;;;;4.97;4.67;;;;;;;;;;5114091;28;20192;-69
2022/10/26 04:48:01;;;;;;;4.80;4.43;;;;;;;-142.65;95.49;50172.78;5114040;28;20212;-69
2022/10/26 04:50:28;;;;;;;4.90;4.67;;;;;;;;;;5114218;28;20174;-69
2022/10/26 04:52:54;;;;;;;5.33;4.60;;;;;;;-142.65;95.54;50170.78;5114466;28;20189;-68
2022/10/26 04:55:21;;;;;;;4.40;4.30;;;;;;;-142.65;95.57;50162.81;5113884;28;20185;-68
2022/10/26 04:57:47;;;;;;;4.83;4.57;;;;;;;-142.65;95.70;50168.78;5113886;28;20256;-68
2022/10/26 05:00:14;;;;;;;13.20;4.80;;;;;;;;;;5113749;28;20698;-68
2022/10/26 05:02:40;;;;;;;6.00;4.70;;;;;;;-142.65;95.93;50172.78;5113737;28;20690;-69
2022/10/26 05:05:07;;;;;;;7.50;4.80;;;;;;;-142.65;95.82;50168.78;5114392;28;20223;-69
2022/10/26 05:07:39;;;;;;;5.03;3.97;;;;;;;-142.65;95.78;50170.78;5113753;28;20296;-68
2022/10/26 05:10:06;;;;;;;4.13;4.03;;;;;;;;;;5114333;28;20176;-68
2022/10/26 05:12:32;;;;;;;5.00;4.40;;;;;;;-142.65;95.73;50170.78;5113456;28;20205;-68
2022/10/26 05:14:58;;;;;;;6.70;4.67;;;;;;;;;;5113456;28;20199;-68
2022/10/26 05:17:25;;;;;;;5.87;3.93;;;;;;;-142.65;95.99;50172.78;5113628;28;20192;-68
2022/10/26 05:19:54;;;;;;;4.10;3.80;;;;;;;-142.65;95.97;50168.78;5095340;28;20232;-68
2022/10/26 05:22:21;;;;;;;4.03;3.83;;;;;;;-142.65;96.09;50164.81;5113491;28;20220;-69
2022/10/26 05:24:47;;;;;;;4.10;4.00;;;;;;;-142.65;96.07;50174.75;5113589;28;20551;-68
2022/10/26 05:27:14;;;;;;;5.00;4.70;;;;;;;;;;5113503;28;20201;-68
2022/10/26 05:29:40;;;;;;;5.57;4.50;;;;;;;-142.65;96.18;50176.75;5117062;28;20192;-68
2022/10/26 05:32:07;;;;;;;5.47;5.17;;;;;;;-142.65;96.21;50168.78;5117654;28;20212;-68
2022/10/26 05:34:33;;;;;;;4.63;4.27;;;;;;;-142.65;96.32;50162.81;5118191;28;20189;-68
2022/10/26 05:37:04;;;;;;;4.30;4.10;;;;;;;;;;5117959;28;20177;-68
2022/10/26 05:39:30;;;;;;;6.43;4.33;;;;;;;;;;5117504;28;20216;-68
2022/10/26 05:41:57;;;;;;;5.10;4.40;;;;;;;-142.65;96.31;50170.78;5117622;28;20205;-68
2022/10/26 05:44:23;;;;;;;5.10;4.70;;;;;;;;;;5117970;28;20537;-68
2022/10/26 05:46:49;;;;;;;5.70;5.23;;;;;;;-142.65;96.18;50170.78;5118034;28;20546;-68
2022/10/26 05:49:16;;;;;;;4.67;4.57;;;;;;;-142.65;96.15;50170.78;5117610;28;20173;-68
2022/10/26 05:51:42;;;;;;;4.27;3.90;;;;;;;-142.65;96.17;50168.78;5117256;28;20220;-68
2022/10/26 05:54:08;;;;;;;4.43;4.23;;;;;;;-142.65;96.24;50168.78;5117297;28;20302;-68
2022/10/26 05:56:40;;;;;;;4.33;3.90;;;;;;;-142.65;96.33;50170.78;5117296;28;20265;-68
2022/10/26 05:59:15;;;;;;;4.90;4.20;;;;;;;-142.65;96.38;50172.78;5117140;28;20197;-69
2022/10/26 06:02:00;;;;;;;4.33;4.17;;;;;;;;;;5117176;28;20212;-69
2022/10/26 06:04:49;;;;;;;7.70;4.60;;;;;;;-142.65;96.56;50182.72;5117719;28;20178;-69
2022/10/26 06:07:17;;;;;;;6.00;4.90;;;;;;;;;;5117388;28;20610;-69
2022/10/26 06:09:43;;;;;;;4.17;3.80;;;;;;;;;;5117004;28;20177;-69
2022/10/26 06:12:10;;;;;;;3.80;3.50;;;;;;;-142.65;96.88;50170.78;5117166;28;20710;-69
2022/10/26 06:14:41;;;;;;;4.70;4.40;;;;;;;-142.65;97.04;50168.78;5116862;28;20220;-69
2022/10/26 06:17:35;;;;;;;7.47;4.00;;;;;;;-142.65;97.05;50117.00;5117075;28;20522;-68
2022/10/26 06:20:26;;;;;;;3.87;3.57;;;;;;;-142.65;97.05;50178.75;5117042;28;20213;-68
2022/10/26 06:23:40;;;;;;;8.53;4.30;;;;;;;-142.65;97.24;50164.81;5117317;28;20528;-68
2022/10/26 06:26:31;;;;;;;3.77;3.67;;;;;;;-142.65;96.99;50174.75;5061124;28;20208;-68
2022/10/26 06:29:02;;;;;;;7.20;4.63;;;;;;;-142.65;97.38;50170.78;5116737;28;20180;-68
2022/10/26 06:31:28;;;;;;;5.27;4.13;;;;;;;;;;5117136;28;20581;-69
2022/10/26 06:33:58;;;;;;;4.53;3.90;;;;;;;-142.65;97.30;50174.75;5116523;28;20193;-69
2022/10/26 06:36:26;;;;;;;3.97;3.87;;;;;;;;;;5116783;28;20181;-68
2022/10/26 06:39:02;;;;;;;4.67;4.27;;;;;;;-142.65;97.36;50170.78;5116656;28;20212;-68
2022/10/26 06:41:30;;;;;;;4.50;4.10;;;;;;;;;;5115887;28;20548;-68
2022/10/26 06:43:57;;;;;;;5.00;4.40;;;;;;;-142.65;97.32;50170.78;5116381;28;20185;-68
2022/10/26 06:46:44;;;;;;;5.33;4.33;;;;;;;-142.65;97.34;50182.72;5116297;28;20196;-68
2022/10/26 06:49:26;;;;;;;3.60;3.40;;;;;;;-142.65;97.43;50174.75;5116499;28;20174;-68
2022/10/26 06:52:08;;;;;;;4.77;4.50;;;;;;;-142.65;97.45;50162.81;5116422;28;20559;-69
2022/10/26 06:54:41;;;;;;;7.93;4.17;;;;;;;;;;5116150;28;20178;-69
2022/10/26 06:57:10;;;;;;;3.90;3.60;;;;;;;-142.65;97.36;50172.78;5116406;28;20546;-69
2022/10/26 06:59:50;;;;;;;4.10;3.80;;;;;;;-142.65;97.53;50172.78;5116310;28;20597;-69
2022/10/26 07:02:17;;;;;;;3.97;3.67;;;;;;;-142.65;97.52;50170.78;5116236;28;20212;-68
2022/10/26 07:04:44;;;;;;;3.63;3.43;;;;;;;-142.65;97.51;50172.78;5116330;28;20185;-68
2022/10/26 07:07:14;;;;;;;8.13;3.47;;;;;;;-142.65;97.33;50174.75;5116193;28;20646;-69
2022/10/26 07:09:41;;;;;;;12.00;4.03;;;;;;;-142.65;97.33;50168.78;5116502;28;20180;-68
2022/10/26 07:12:07;;;;;;;3.90;3.80;;;;;;;-142.65;97.15;50174.75;5115948;28;20228;-69
2022/10/26 07:14:34;;;;;;;4.10;3.83;;;;;;;;;;5115675;28;20189;-69
2022/10/26 07:17:00;;;;;;;10.43;3.80;;;;;;;-142.65;96.91;50168.78;5115716;28;20681;-68
2022/10/26 07:19:27;;;;;;;8.17;3.77;;;;;;;;;;5115647;28;20212;-68
2022/10/26 07:21:58;;;;;;;4.43;4.03;;;;;;;-142.65;96.91;50164.81;5115622;28;20201;-69
2022/10/26 07:24:25;;;;;;;10.60;3.83;;;;;;;-142.65;96.94;50170.78;5116181;28;20192;-68
2022/10/26 07:26:52;;;;;;;7.13;4.53;;;;;;;;;;5115559;28;20185;-68
2022/10/26 07:29:19;;;;;;;6.10;3.53;;;;;;;-142.65;96.96;50164.81;5115833;28;20177;-68
2022/10/26 07:31:45;;;;;;;5.20;4.23;;;;;;;-142.65;96.88;50168.78;5115491;28;20213;-68
2022/10/26 07:34:12;;;;;;;4.63;4.23;;;;;;;-142.65;96.86;50168.78;5115580;28;20223;-68
2022/10/26 07:36:38;;;;;;;3.67;3.37;;;;;;;;;;5115304;28;20589;-68
2022/10/26 07:39:06;;;;;;;4.33;4.13;;;;;;;-142.65;96.94;50162.81;5115157;28;20568;-68
2022/10/26 07:41:32;;;;;;;4.40;4.07;;;;;;;-142.65;96.99;50164.81;5115148;28;20197;-68
2022/10/26 07:43:59;;;;;;;11.30;3.50;;;;;;;-142.65;97.19;50168.78;5115334;28;20191;-68
2022/10/26 07:46:25;;;;;;;9.97;4.30;;;;;;;-142.65;97.07;50168.78;5115098;28;20677;-68
2022/10/26 07:48:52;;;;;;;3.00;3.00;;;;;;;-142.65;96.94;50162.81;5115360;28;20189;-68
2022/10/26 07:51:19;;;;;;;4.50;2.80;;;;;;;-142.65;96.83;50170.78;5114607;28;20220;-69
2022/10/26 07:53:45;;;;;;;4.20;3.90;;;;;;;-142.65;96.80;50170.78;5114455;28;20549;-69
2022/10/26 07:56:12;;;;;;;3.87;3.60;;;;;;;-142.65;96.55;50170.78;5115498;28;20193;-69
2022/10/26 07:58:39;;;;;;;3.50;3.30;;;;;;;;;;5114871;28;20181;-69
2022/10/26 08:01:06;;;;;;;6.73;2.87;;;;;;;;;;5114679;28;20205;-69
2022/10/26 08:03:33;;;;;;;5.43;3.30;;;;;;;-142.65;95.81;50162.81;5115037;28;20534;-68
2022/10/26 08:06:00;;;;;;;4.27;3.97;;;;;;;;;;5114733;28;20185;-68
2022/10/26 08:08:26;;;;;;;3.40;3.30;;;;;;;;;;5115216;28;20188;-68
2022/10/26 08:10:52;;;;;;;9.60;4.43;;;;;;;;;;5114876;28;20209;-69
2022/10/26 08:13:19;;;;;;;3.97;3.70;;;;;;;-142.65;94.36;50164.81;5114511;28;20186;-69
2022/10/26 08:15:46;;;;;;;3.20;3.10;;;;;;;-142.65;92.77;50164.81;5114682;28;20264;-69
2022/10/26 08:18:12;;;;;;;4.63;3.10;;;;;;;-142.65;90.80;50164.81;5114593;28;20193;-69
2022/10/26 08:20:39;;;;;;;3.33;2.90;;;;;;;-142.65;88.04;50162.81;5114650;28;20206;-69
2022/10/26 08:23:07;;;;;;;8.57;3.40;;;;;;;-142.65;87.09;50170.78;5114991;28;20193;-69
2022/10/26 08:25:33;;;;;;;3.67;3.57;;;;;;;-142.65;86.91;50168.78;5114989;28;20183;-68
2022/10/26 08:28:03;;;;;;;3.47;2.73;;;;;;;-142.65;84.09;50164.81;5114366;28;20189;-68
2022/10/26 08:30:30;;;;;;;6.57;2.37;;;;;;;-142.65;82.62;50170.78;5114833;28;20720;-69
2022/10/26 08:32:59;;;;;;;2.70;2.60;;;;;;;-142.65;81.04;50164.81;5114290;28;20174;-69
2022/10/26 08:35:26;;;;;;;2.03;2.03;;;;;;;-142.65;78.49;50164.81;5114241;28;20185;-69
2022/10/26 08:37:53;;;;;;;3.40;2.10;;;;;;;-142.65;77.65;50162.81;5114464;28;20188;-69
2022/10/26 08:40:29;;;;;;;2.70;2.50;;;;;;;-142.65;77.05;50168.78;5114632;28;20204;-69
2022/10/26 08:43:11;;;;;;;1.90;1.90;;;;;;;;;;5114165;28;20207;-69
2022/10/26 08:45:44;;;;;;;2.87;2.70;;;;;;;;;;5114366;28;20638;-69
2022/10/26 08:48:16;;;;;;;5.03;3.10;;;;;;;-142.65;75.77;50164.81;5114375;28;20192;-69
2022/10/26 08:50:46;;;;;;;9.83;2.20;;;;;;;-142.65;73.60;50162.81;5114560;28;20205;-69
2022/10/26 08:53:18;;;;;;;2.03;2.03;;;;;;;-142.65;73.52;50164.81;5114191;28;20181;-69
2022/10/26 08:55:55;;;;;;;1.90;1.90;;;;;;;-142.65;74.03;50162.81;5113938;28;20184;-69
2022/10/26 08:58:27;;;;;;;2.10;2.10;;;;;;;-142.65;72.89;50164.81;5114481;28;20177;-69
2022/10/26 09:00:53;;;;;;;2.70;2.60;;;;;;;-142.65;71.48;50162.81;5113752;28;20223;-69
2022/10/26 09:03:20;;;;;;;1.73;1.63;;;;;;;-142.65;70.95;50170.78;5113627;28;20184;-69
2022/10/26 09:06:03;;;;;;;2.00;1.90;;;;;;;-142.65;70.76;50164.81;5114335;28;20542;-69
2022/10/26 09:09:07;;;;;;;6.23;1.70;;;;;;;-142.65;70.94;50162.81;5114064;28;20177;-69
2022/10/26 09:11:53;;;;;;;2.20;2.20;;;;;;;-142.65;70.47;50164.81;5113630;28;20216;-69
2022/10/26 09:14:39;;;;;;;1.67;1.60;;;;;;;;;;5113929;28;20201;-69
2022/10/26 09:17:11;;;;;;;4.00;2.77;;;;;;;-142.65;70.42;50162.81;5095913;28;20177;-69
2022/10/26 09:19:56;;;;;;;2.40;2.40;;;;;;;-142.65;69.26;50170.78;5113601;28;20216;-69
2022/10/26 09:22:35;;;;;;;3.77;2.33;;;;;;;-142.65;70.13;50162.81;5113668;28;20588;-69
2022/10/26 09:25:17;;;;;;;2.07;2.00;;;;;;;-142.65;70.84;50162.81;5113634;28;20173;-69
2022/10/26 09:27:47;;;;;;;5.50;1.63;;;;;;;-142.65;70.82;50164.81;5114079;28;20527;-69
2022/10/26 09:30:16;;;;;;;4.37;2.13;;;;;;;;;;5113592;28;20199;-69
2022/10/26 09:32:46;;;;;;;3.33;2.40;;;;;;;-142.65;69.19;50170.78;5113711;28;20208;-69
2022/10/26 09:35:35;;;;;;;3.23;2.63;;;;;;;-142.65;67.90;50162.81;5113787;28;20170;-69
2022/10/26 09:38:02;;;;;;;4.83;2.10;;;;;;;;;;5112971;28;20201;-69
2022/10/26 09:40:35;;;;;;;3.00;2.90;;;;;;;-142.65;68.27;50162.81;5113350;28;20197;-69
2022/10/26 09:43:25;;;;;;;3.80;2.03;;;;;;;-142.65;67.93;50160.81;5114058;28;20260;-69
2022/10/26 09:45:52;;;;;;;6.37;2.20;;;;;;;-142.65;68.86;50164.81;5113509;28;20516;-69
2022/10/26 09:48:21;;;;;;;2.80;2.53;;;;;;;;;;5113356;28;20192;-69
2022/10/26 09:50:48;;;;;;;1.87;1.87;;;;;;;-142.65;67.53;50162.81;5113772;28;20199;-69
2022/10/26 09:53:15;;;;;;;2.37;2.37;;;;;;;;;;5113679;28;20213;-69
2022/10/26 09:55:45;;;;;;;2.50;2.40;;;;;;;-142.65;68.69;50168.78;5113316;28;20583;-69
2022/10/26 09:58:28;;;;;;;2.13;2.13;;;;;;;-142.65;68.08;50162.81;5113278;28;20197;-69
2022/10/26 10:00:55;;;;;;;18.47;2.47;;;;;;;-142.65;68.06;50170.78;5113152;28;20217;-69
2022/10/26 10:03:30;;;;;;;5.10;2.30;;;;;;;-142.65;67.03;50164.81;5113182;28;20193;-69
2022/10/26 10:06:17;;;;;;;2.97;2.87;;;;;;;;;;5113537;28;20184;-69
2022/10/26 10:09:04;;;;;;;2.73;2.60;;;;;;;-142.65;67.19;50164.81;5113179;28;20180;-69
2022/10/26 10:11:56;;;;;;;2.40;2.40;;;;;;;-142.65;68.50;50162.81;5114037;28;20209;-69
2022/10/26 10:14:26;;;;;;;2.93;2.30;;;;;;;-142.65;67.81;50164.81;5113163;28;20677;-69
2022/10/26 10:17:01;;;;;;;2.60;2.50;;;;;;;-142.65;67.69;50162.81;5116309;28;20190;-69
2022/10/26 10:19:29;;;;;;;2.20;2.20;;;;;;;-142.65;67.84;50164.81;5117172;28;20168;-69
2022/10/26 10:21:59;;;;;;;6.83;3.27;;;;;;;-142.65;67.69;50164.81;5116714;28;20244;-69
2022/10/26 10:24:30;;;;;;;2.10;2.03;;;;;;;-142.65;68.09;50160.81;5117082;28;20208;-69
2022/10/26 10:27:03;;;;;;;2.17;2.03;;;;;;;-142.65;68.86;50164.81;5116763;28;20182;-69
2022/10/26 10:29:32;;;;;;;2.67;2.00;;;;;;;-142.65;69.38;50162.81;5116661;28;20196;-69
2022/10/26 10:32:01;;;;;;;6.90;2.60;;;;;;;-142.65;69.47;50164.81;5116500;28;20706;-69
2022/10/26 10:34:32;;;;;;;4.77;3.30;;;;;;;-142.65;68.80;50162.81;5116605;28;20196;-69
2022/10/26 10:36:59;;;;;;;2.57;2.47;;;;;;;;;;5116881;28;20258;-69
2022/10/26 10:39:36;;;;;;;4.03;2.50;;;;;;;-142.65;69.22;50164.81;5116358;28;20200;-69
2022/10/26 10:42:05;;;;;;;2.87;2.83;;;;;;;-142.65;70.05;50168.78;5116414;28;20566;-69
2022/10/26 10:44:33;;;;;;;2.80;2.60;;;;;;;-142.65;68.97;50164.81;5116355;28;20189;-69
2022/10/26 10:47:01;;;;;;;3.97;2.50;;;;;;;-142.65;69.05;50162.81;5116654;28;20170;-69
2022/10/26 10:49:29;;;;;;;3.57;2.80;;;;;;;-142.65;68.85;50162.81;5116213;28;20185;-69
2022/10/26 10:51:56;;;;;;;7.70;2.80;;;;;;;-142.65;69.16;50164.81;5116155;28;20205;-69
2022/10/26 10:54:36;;;;;;;2.10;2.10;;;;;;;-142.65;68.30;50162.81;5116280;28;20188;-69
2022/10/26 10:57:21;;;;;;;2.83;2.63;;;;;;;-142.65;67.93;50162.81;5116150;28;20181;-69
2022/10/26 10:59:56;;;;;;;2.50;2.27;;;;;;;-142.65;68.83;50162.81;5116042;28;20623;-69
2022/10/26 11:02:28;;;;;;;7.10;2.90;;;;;;;;;;5115994;28;20209;-69
2022/10/26 11:05:14;;;;;;;2.70;2.70;;;;;;;-142.65;70.23;50164.81;5116034;28;20197;-69
2022/10/26 11:07:51;;;;;;;3.17;2.90;;;;;;;-142.65;69.11;50164.81;5115963;28;20260;-69
2022/10/26 11:10:21;;;;;;;4.70;3.07;;;;;;;-142.65;69.17;50162.81;5115926;28;20193;-69
2022/10/26 11:12:50;;;;;;;3.43;3.20;;;;;;;;;;5115816;28;20189;-69
2022/10/26 11:15:22;;;;;;;3.03;2.90;;;;;;;-142.65;68.11;50162.81;5117139;28;20193;-70
2022/10/26 11:17:54;;;;;;;3.30;3.30;;;;;;;;;;5116048;28;20615;-69
2022/10/26 11:20:26;;;;;;;2.80;2.70;;;;;;;-142.65;70.60;50162.81;5115519;28;20216;-71
2022/10/26 11:23:11;;;;;;;6.13;2.90;;;;;;;-142.65;69.38;50162.81;5116212;28;20547;-69
2022/10/26 11:25:47;;;;;;;4.73;3.67;;;;;;;-142.65;69.36;50164.81;5116204;28;20512;-69
2022/10/26 11:28:19;;;;;;;3.87;3.07;;;;;;;-142.65;71.64;50164.81;5115559;28;20256;-69
2022/10/26 11:30:52;;;;;;;4.43;3.47;;;;;;;-142.65;71.06;50162.81;5115908;28;20209;-70
2022/10/26 11:33:19;;;;;;;12.33;3.63;;;;;;;;;;5115752;28;20529;-69
2022/10/26 11:35:55;;;;;;;3.37;3.30;;;;;;;-142.65;72.71;50164.81;5115611;28;20570;-69
2022/10/26 11:38:44;;;;;;;4.67;3.03;;;;;;;-142.65;70.81;50164.81;5116189;28;20542;-69
2022/10/26 11:41:54;;;;;;;3.97;3.60;;;;;;;-142.65;71.19;50101.06;5115459;28;20572;-69
2022/10/26 11:44:29;;;;;;;3.90;3.80;;;;;;;-142.65;72.22;50170.78;5115531;28;20177;-69
2022/10/26 11:47:01;;;;;;;8.33;3.27;;;;;;;-142.65;71.26;50164.81;5115338;28;20177;-69
2022/10/26 11:49:43;;;;;;;3.17;3.07;;;;;;;-142.65;71.64;50162.81;5115536;28;20505;-69
2022/10/26 11:52:20;;;;;;;4.10;3.10;;;;;;;-142.65;71.50;50162.81;5115097;28;20213;-69
2022/10/26 11:54:47;;;;;;;3.57;3.40;;;;;;;;;;5115201;28;20173;-69
2022/10/26 11:57:15;;;;;;;3.10;2.93;;;;;;;-142.65;71.40;50117.00;5115131;28;20190;-69
2022/10/26 11:59:48;;;;;;;6.10;3.10;;;;;;;-142.65;70.87;50162.81;5114879;28;20689;-69
2022/10/26 12:02:22;;;;;;;7.33;3.00;;;;;;;;;;5115358;28;20208;-69
2022/10/26 12:04:55;;;;;;;6.13;3.37;;;;;;;-142.65;71.20;50164.81;5115209;28;20184;-69
2022/10/26 12:07:37;;;;;;;3.57;3.47;;;;;;;-142.65;71.80;50160.81;5115337;28;20181;-69
2022/10/26 12:10:05;;;;;;;3.17;3.07;;;;;;;;;;5115247;28;20177;-69
2022/10/26 12:12:43;;;;;;;3.10;3.03;;;;;;;-142.65;70.87;50162.81;5114875;28;20209;-70
2022/10/26 12:15:38;;;;;;;7.53;3.10;;;;;;;-142.65;71.11;50164.81;5115400;28;20196;-69
2022/10/26 12:18:41;;;;;;;5.60;2.97;;;;;;;-142.65;72.39;50164.81;5115186;28;20177;-69